Time;durP1;ratioP1;P1;durP2;ratioP2;P2;SDS_P1;SDS_P2;PMS_P1;PMS_P2;Temp;Humidity;BMP_temperature;BMP_pressure;BME280_temperature;BME280_humidity;BME280_pressure;Samples;Min_cycle;Max_cycle;Signal;HPM_P1;HPM_P2
2023/12/09 00:00:17;;;;;;;26.83;17.93;;;;;;;5.79;63.74;99869.63;10418539;28;20339;-72
2023/12/09 00:05:26;;;;;;;30.70;19.07;;;;;;;5.36;65.52;99847.22;10431155;28;20232;-72
2023/12/09 00:10:34;;;;;;;28.77;18.13;;;;;;;4.80;66.17;99910.03;10417612;28;20243;-72
2023/12/09 00:15:43;;;;;;;37.60;21.17;;;;;;;5.04;67.11;99808.72;10425356;28;20294;-72
2023/12/09 00:20:51;;;;;;;35.23;20.23;;;;;;;5.49;66.23;99781.34;10421737;28;20243;-72
2023/12/09 00:25:59;;;;;;;37.57;22.70;;;;;;;4.94;67.46;99834.47;10433018;28;20233;-71
2023/12/09 00:31:07;;;;;;;38.40;21.63;;;;;;;5.44;66.69;99756.28;10431973;28;20448;-71
2023/12/09 00:36:15;;;;;;;40.87;22.77;;;;;;;5.37;66.91;99781.72;10433989;28;20419;-72
2023/12/09 00:41:24;;;;;;;41.50;22.43;;;;;;;5.10;65.69;99886.91;10437041;28;20231;-72
2023/12/09 00:46:32;;;;;;;32.63;23.03;;;;;;;5.75;64.75;99809.84;10421972;28;20625;-75
2023/12/09 00:51:40;;;;;;;37.00;21.67;;;;;;;6.09;65.26;99750.66;10438748;28;20239;-72
2023/12/09 00:56:48;;;;;;;36.37;21.50;;;;;;;5.87;64.42;99839.66;10422454;28;20743;-72
2023/12/09 01:02:03;;;;;;;33.00;21.30;;;;;;;5.12;66.65;99871.66;10430260;28;20331;-72
2023/12/09 01:07:18;;;;;;;36.13;21.10;;;;;;;5.95;63.76;99868.94;10380427;28;20236;-72
2023/12/09 01:12:27;;;;;;;31.50;20.70;;;;;;;6.02;63.95;99832.81;10398635;28;20335;-71
2023/12/09 01:17:35;;;;;;;32.53;21.17;;;;;;;5.94;64.09;99855.81;10392528;28;20337;-73
2023/12/09 01:22:43;;;;;;;35.03;20.03;;;;;;;5.90;63.62;99896.94;10372328;28;20237;-71
2023/12/09 01:27:52;;;;;;;34.80;20.43;;;;;;;6.04;63.72;99891.09;10400069;28;20312;-71
2023/12/09 01:33:03;;;;;;;36.23;20.27;;;;;;;5.83;63.99;99886.09;10397968;28;20264;-70
2023/12/09 01:38:11;;;;;;;38.70;20.73;;;;;;;5.44;64.61;99924.31;10394396;28;20228;-71
2023/12/09 01:43:19;;;;;;;34.10;20.23;;;;;;;4.26;68.37;99983.00;10389848;28;20314;-71
2023/12/09 01:48:27;;;;;;;33.80;17.43;;;;;;;4.69;67.61;99947.28;10397036;28;20711;-72
2023/12/09 01:53:38;;;;;;;38.20;19.07;;;;;;;6.21;64.15;99799.06;10410137;28;20231;-73
2023/12/09 01:58:46;;;;;;;31.83;19.17;;;;;;;6.41;61.30;99909.53;10394176;28;20237;-72
2023/12/09 02:04:02;;;;;;;33.80;19.80;;;;;;;6.11;62.47;99901.94;10395300;28;20705;-72
2023/12/09 02:09:18;;;;;;;31.17;17.60;;;;;;;5.63;63.39;99951.75;10387281;28;20248;-71
2023/12/09 02:14:36;;;;;;;35.03;20.50;;;;;;;5.95;63.16;99908.78;10391979;28;20610;-70
2023/12/09 02:19:44;;;;;;;28.27;17.63;;;;;;;5.26;65.95;99857.06;10393253;28;20236;-71
2023/12/09 02:24:52;;;;;;;28.43;16.47;;;;;;;4.16;70.09;99830.19;10359688;28;20556;-71
2023/12/09 02:30:20;;;;;;;30.33;18.10;;;;;;;3.52;70.17;99960.41;10445462;28;20200;-72
2023/12/09 02:35:29;;;;;;;30.33;18.70;;;;;;;4.76;67.98;99782.22;10394174;28;20631;-71
2023/12/09 02:40:41;;;;;;;33.93;18.57;;;;;;;4.03;68.86;99888.72;10396631;28;20263;-72
2023/12/09 02:45:49;;;;;;;34.47;19.30;;;;;;;5.55;65.40;99760.50;10397137;28;20239;-71
2023/12/09 02:50:57;;;;;;;35.87;19.53;;;;;;;4.82;65.71;99881.53;10401203;28;20225;-72
2023/12/09 02:56:11;;;;;;;39.10;20.37;;;;;;;5.40;64.76;99810.63;10397053;28;20659;-71
2023/12/09 03:01:21;;;;;;;40.87;19.30;;;;;;;5.07;65.78;99850.06;10396048;28;20227;-71
2023/12/09 03:06:36;;;;;;;43.63;21.63;;;;;;;5.52;65.05;99781.06;10422483;28;20240;-71
2023/12/09 03:11:44;;;;;;;42.43;21.33;;;;;;;5.72;64.21;99810.13;10444555;28;20253;-71
2023/12/09 03:16:52;;;;;;;42.07;21.10;;;;;;;6.13;64.13;99714.00;10425383;28;20264;-70
2023/12/09 03:22:07;;;;;;;41.43;21.47;;;;;;;5.49;64.38;99825.66;10431273;28;20237;-71
2023/12/09 03:27:15;;;;;;;38.83;19.90;;;;;;;5.60;64.37;99803.38;10426756;28;20234;-71
2023/12/09 03:32:23;;;;;;;37.23;20.93;;;;;;;5.51;64.25;99843.09;10428153;28;20282;-71
2023/12/09 03:37:32;;;;;;;34.80;20.30;;;;;;;6.08;63.82;99749.00;10425265;28;20288;-71
2023/12/09 03:42:40;;;;;;;38.87;20.57;;;;;;;6.04;64.00;99747.63;10425817;28;20282;-71
2023/12/09 03:47:48;;;;;;;38.37;21.47;;;;;;;5.79;63.65;99789.97;10460195;28;20230;-71
2023/12/09 03:52:56;;;;;;;39.97;19.27;;;;;;;5.19;66.29;99793.16;10480646;28;20242;-71
2023/12/09 03:58:05;;;;;;;31.50;18.93;;;;;;;4.80;66.41;99840.25;10476745;28;20363;-71
2023/12/09 04:03:27;;;;;;;31.83;18.03;;;;;;;4.99;65.83;99855.25;10480732;28;20238;-72
2023/12/09 04:08:45;;;;;;;38.03;18.37;;;;;;;6.12;64.20;99729.09;10475537;28;20691;-72
2023/12/09 04:13:53;;;;;;;29.47;17.57;;;;;;;5.24;65.11;99861.69;10477186;28;20250;-72
2023/12/09 04:19:04;;;;;;;34.90;19.23;;;;;;;5.09;64.99;99883.38;10480460;28;20256;-72
2023/12/09 04:24:12;;;;;;;33.83;18.63;;;;;;;4.88;65.72;99859.75;10476015;28;20280;-71
2023/12/09 04:29:21;;;;;;;43.03;19.13;;;;;;;5.07;65.34;99848.22;10480862;28;20250;-72
2023/12/09 04:34:29;;;;;;;33.23;17.97;;;;;;;5.17;66.30;99789.00;10454882;28;20235;-71
2023/12/09 04:39:37;;;;;;;35.60;18.70;;;;;;;5.73;64.49;99776.47;10460159;28;20241;-72
2023/12/09 04:44:45;;;;;;;36.70;19.13;;;;;;;4.93;65.63;99877.91;10476268;28;20231;-72
2023/12/09 04:49:53;;;;;;;36.40;20.00;;;;;;;4.78;66.81;99835.09;10460410;28;20330;-71
2023/12/09 04:55:03;;;;;;;36.00;19.83;;;;;;;5.65;64.89;99743.53;10475284;28;20783;-71
2023/12/09 05:00:12;;;;;;;39.10;20.63;;;;;;;5.64;64.50;99770.25;10475038;28;20243;-70
2023/12/09 05:05:27;;;;;;;36.47;18.93;;;;;;;5.45;65.13;99768.53;10471187;28;20249;-71
2023/12/09 05:10:35;;;;;;;32.73;17.07;;;;;;;5.52;64.68;99797.00;10477037;28;20243;-74
2023/12/09 05:15:44;;;;;;;30.33;16.33;;;;;;;5.35;66.28;99730.63;10471232;28;20328;-74
2023/12/09 05:20:51;;;;;;;27.33;15.33;;;;;;;5.59;64.98;99743.34;10479556;28;20250;-74
2023/12/09 05:25:59;;;;;;;25.57;14.97;;;;;;;4.61;67.24;99875.59;10452476;28;20234;-74
2023/12/09 05:31:07;;;;;;;19.23;11.10;;;;;;;4.01;70.87;99797.16;10474975;28;20676;-74
2023/12/09 05:36:16;;;;;;;24.97;11.40;;;;;;;5.00;68.79;99676.56;10472138;28;20322;-73
2023/12/09 05:41:25;;;;;;;23.03;11.50;;;;;;;5.05;68.84;99661.88;10474588;28;20239;-74
2023/12/09 05:46:32;;;;;;;16.47;10.33;;;;;;;4.59;69.99;99679.59;10467490;28;20235;-74
2023/12/09 05:51:42;;;;;;;15.27;9.10;;;;;;;4.61;68.40;99743.91;10422295;28;20725;-73
2023/12/09 05:56:50;;;;;;;23.10;12.00;;;;;;;4.97;67.79;99680.34;10426425;28;20243;-73
2023/12/09 06:01:58;;;;;;;23.23;13.57;;;;;;;5.17;66.61;99704.94;10435032;28;20224;-74
2023/12/09 06:07:13;;;;;;;23.43;11.90;;;;;;;4.01;70.78;99723.84;10456115;28;20231;-74
2023/12/09 06:12:21;;;;;;;16.97;10.53;;;;;;;4.21;71.26;99647.00;10470310;28;20735;-75
2023/12/09 06:17:30;;;;;;;18.43;11.40;;;;;;;4.69;69.89;99630.00;10468555;28;20322;-74
2023/12/09 06:22:38;;;;;;;21.60;11.80;;;;;;;4.58;68.95;99659.41;10462192;28;20606;-74
2023/12/09 06:27:47;;;;;;;16.70;9.23;;;;;;;3.74;70.99;99753.72;10461464;28;20641;-75
2023/12/09 06:32:54;;;;;;;17.03;9.67;;;;;;;4.20;69.64;99708.88;10458326;28;20250;-74
2023/12/09 06:38:03;;;;;;;15.47;9.83;;;;;;;4.21;70.10;99710.56;10466962;28;20326;-74
2023/12/09 06:43:11;;;;;;;14.30;8.23;;;;;;;4.25;70.31;99653.66;10467052;28;20328;-74
2023/12/09 06:48:20;;;;;;;11.63;8.70;;;;;;;4.80;68.47;99630.81;10453646;28;20235;-74
2023/12/09 06:53:29;;;;;;;21.27;9.73;;;;;;;4.10;68.97;99769.00;10474367;28;20529;-74
2023/12/09 06:58:41;;;;;;;14.20;8.33;;;;;;;5.36;67.02;99575.75;10461084;28;20323;-74
2023/12/09 07:03:58;;;;;;;9.73;8.00;;;;;;;5.16;66.17;99668.75;10444735;28;20237;-77
2023/12/09 07:09:13;;;;;;;11.80;7.83;;;;;;;5.65;64.94;99652.44;10475992;28;20319;-73
2023/12/09 07:14:22;;;;;;;14.77;8.87;;;;;;;6.27;63.36;99623.06;10466874;28;20474;-73
2023/12/09 07:19:32;;;;;;;17.30;8.90;;;;;;;6.04;62.89;99706.00;10477402;28;20298;-76
2023/12/09 07:24:41;;;;;;;19.50;8.70;;;;;;;5.55;63.96;99748.06;10477554;28;20242;-74
2023/12/09 07:29:49;;;;;;;17.00;8.93;;;;;;;5.62;63.99;99722.63;10479217;28;20724;-76
2023/12/09 07:34:58;;;;;;;17.73;10.10;;;;;;;5.83;64.70;99660.38;10474386;28;20475;-74
2023/12/09 07:40:10;;;;;;;21.43;11.20;;;;;;;5.57;65.82;99660.31;10484321;28;20239;-75
2023/12/09 07:45:17;;;;;;;17.97;9.70;;;;;;;5.33;64.93;99741.38;10476242;28;20803;-74
2023/12/09 07:50:34;;;;;;;19.70;9.27;;;;;;;6.32;62.83;99628.72;10478734;28;20347;-76
2023/12/09 07:55:43;;;;;;;17.13;9.60;;;;;;;5.48;64.01;99753.13;10474886;28;20268;-74
2023/12/09 08:00:51;;;;;;;18.43;10.00;;;;;;;5.41;64.72;99745.94;10480901;28;20394;-75
2023/12/09 08:06:06;;;;;;;16.80;10.90;;;;;;;6.25;63.43;99628.53;10467181;28;20318;-74
2023/12/09 08:11:15;;;;;;;25.03;13.07;;;;;;;5.32;64.82;99742.38;10464519;28;20743;-74
2023/12/09 08:16:22;;;;;;;17.27;11.33;;;;;;;5.88;63.89;99669.50;10473213;28;20223;-74
2023/12/09 08:21:37;;;;;;;17.83;9.43;;;;;;;6.18;63.28;99635.47;10464599;28;20667;-73
2023/12/09 08:26:46;;;;;;;14.23;9.53;;;;;;;6.34;63.22;99609.97;10470060;28;20313;-75
2023/12/09 08:32:01;;;;;;;18.90;9.43;;;;;;;5.17;65.93;99717.38;10485990;28;20255;-74
2023/12/09 08:37:08;;;;;;;19.23;10.60;;;;;;;5.87;64.41;99651.94;10483740;28;20231;-75
2023/12/09 08:42:17;;;;;;;13.43;7.90;;;;;;;5.52;66.37;99643.03;10469004;28;20721;-74
2023/12/09 08:47:25;;;;;;;12.30;6.90;;;;;;;4.74;69.00;99706.44;10472103;28;20240;-74
2023/12/09 08:52:33;;;;;;;14.13;8.20;;;;;;;6.16;64.61;99597.63;10490281;28;20243;-74
2023/12/09 08:57:41;;;;;;;12.43;7.17;;;;;;;5.84;65.76;99623.03;10485327;28;20231;-75
2023/12/09 09:02:50;;;;;;;8.83;6.70;;;;;;;6.10;65.34;99600.91;10490309;28;20589;-74
2023/12/09 09:08:04;;;;;;;12.50;6.23;;;;;;;6.06;65.19;99604.88;10441904;28;20733;-75
2023/12/09 09:13:13;;;;;;;11.83;6.60;;;;;;;5.49;67.77;99573.50;10428321;28;20663;-75
2023/12/09 09:18:23;;;;;;;11.87;6.83;;;;;;;5.50;66.23;99607.00;10435874;28;20589;-74
2023/12/09 09:23:31;;;;;;;13.20;7.17;;;;;;;6.11;65.09;99565.38;10440891;28;20265;-75
2023/12/09 09:28:39;;;;;;;9.83;5.47;;;;;;;5.29;66.56;99663.91;10439528;28;20240;-74
2023/12/09 09:33:47;;;;;;;8.67;5.53;;;;;;;4.74;68.14;99688.75;10446619;28;20253;-79
2023/12/09 09:38:55;;;;;;;7.03;5.03;;;;;;;5.97;64.95;99573.94;10443123;28;20333;-78
2023/12/09 09:44:18;;;;;;;7.77;4.97;;;;;;;5.50;66.57;99570.69;10415741;28;20358;-74
2023/12/09 09:49:30;;;;;;;11.10;6.07;;;;;;;5.84;65.40;99579.69;10423007;28;20290;-73
2023/12/09 09:54:40;;;;;;;6.47;5.07;;;;;;;5.71;66.38;99523.56;10436429;28;20437;-79
2023/12/09 09:59:49;;;;;;;6.67;4.37;;;;;;;5.00;67.23;99587.25;10421050;28;20865;-74
2023/12/09 10:05:10;;;;;;;8.33;4.90;;;;;;;5.60;67.16;99493.63;10450057;28;20237;-74
2023/12/09 10:10:19;;;;;;;6.33;4.00;;;;;;;5.45;66.78;99522.56;10477232;28;20332;-74
2023/12/09 10:15:28;;;;;;;7.83;4.63;;;;;;;6.47;64.43;99463.31;10478474;28;20319;-73
2023/12/09 10:20:36;;;;;;;5.33;4.37;;;;;;;5.78;65.00;99533.38;10479238;28;20548;-74
2023/12/09 10:25:47;;;;;;;5.83;3.43;;;;;;;5.24;66.63;99540.66;10480023;28;20246;-73
2023/12/09 10:30:56;;;;;;;7.83;4.57;;;;;;;5.79;64.93;99518.25;10484945;28;20243;-74
2023/12/09 10:36:08;;;;;;;5.43;4.10;;;;;;;5.93;64.25;99540.75;10473124;28;20744;-74
2023/12/09 10:41:17;;;;;;;8.60;4.23;;;;;;;6.53;62.95;99471.47;10470136;28;20454;-73
2023/12/09 10:46:25;;;;;;;6.30;4.00;;;;;;;6.30;63.75;99454.50;10462409;28;20235;-74
2023/12/09 10:51:34;;;;;;;6.67;4.50;;;;;;;6.28;63.45;99464.44;10483004;28;20708;-73
2023/12/09 10:56:43;;;;;;;4.73;3.80;;;;;;;6.16;63.80;99419.59;10476195;28;20234;-73
2023/12/09 11:06:29;;;;;;;7.00;3.93;;;;;;;5.34;66.80;99358.31;10243652;27;8095870;-73
2023/12/09 11:11:37;;;;;;;4.97;3.77;;;;;;;4.20;68.02;99489.03;10431939;28;20259;-71
2023/12/09 11:16:48;;;;;;;6.63;3.97;;;;;;;5.09;67.04;99347.59;10471219;28;20623;-71
2023/12/09 11:21:56;;;;;;;6.97;3.40;;;;;;;5.47;66.50;99276.41;10473801;28;20255;-70
2023/12/09 11:27:04;;;;;;;5.97;4.23;;;;;;;5.32;66.87;99278.88;10459588;28;20294;-70
2023/12/09 11:32:12;;;;;;;8.30;3.60;;;;;;;5.17;66.37;99300.91;10468102;28;20238;-70
2023/12/09 11:37:21;;;;;;;8.40;3.30;;;;;;;5.68;65.89;99251.25;10474537;28;20277;-71
2023/12/09 11:42:31;;;;;;;4.27;3.90;;;;;;;5.28;65.53;99362.44;10473360;28;20293;-71
2023/12/09 11:47:40;;;;;;;4.20;3.20;;;;;;;4.15;68.44;99409.22;10458166;28;20240;-71
2023/12/09 11:52:49;;;;;;;5.70;4.63;;;;;;;5.69;66.06;99232.50;10465390;28;20258;-74
2023/12/09 11:57:57;;;;;;;5.13;3.40;;;;;;;6.20;64.34;99215.53;10475330;28;20232;-71
2023/12/09 12:03:12;;;;;;;5.63;3.67;;;;;;;5.43;66.53;99272.41;10463783;28;20250;-71
2023/12/09 12:08:27;;;;;;;3.90;3.03;;;;;;;5.30;66.34;99214.53;10461050;28;20236;-75
2023/12/09 12:13:35;;;;;;;3.77;2.60;;;;;;;5.36;64.93;99310.38;10439268;28;20322;-72
2023/12/09 12:18:44;;;;;;;4.43;3.20;;;;;;;5.20;64.72;99290.78;10440110;28;20263;-73
2023/12/09 12:23:53;;;;;;;4.00;2.60;;;;;;;6.44;62.17;99143.66;10441972;28;20738;-69
2023/12/09 12:29:02;;;;;;;4.30;2.63;;;;;;;6.14;62.12;99205.56;10445060;28;20318;-75
2023/12/09 12:34:18;;;;;;;3.73;3.07;;;;;;;6.54;62.61;99119.53;10417037;28;20745;-76
2023/12/09 12:39:25;;;;;;;7.73;2.90;;;;;;;5.72;63.23;99175.56;10430834;28;20227;-74
2023/12/09 12:44:33;;;;;;;8.40;5.20;;;;;;;6.67;60.25;99257.25;10434835;28;20239;-73
2023/12/09 12:49:41;;;;;;;4.30;2.80;;;;;;;6.84;61.21;99174.78;10432966;28;20753;-71
2023/12/09 12:54:50;;;;;;;3.23;2.70;;;;;;;6.35;62.05;99162.50;10430813;28;20234;-72
2023/12/09 12:59:58;;;;;;;3.23;2.60;;;;;;;6.87;60.05;99143.34;10443749;28;20204;-71
2023/12/09 13:05:19;;;;;;;2.87;2.40;;;;;;;6.25;61.44;99146.75;10402321;28;20236;-68
2023/12/09 13:10:27;;;;;;;3.13;2.60;;;;;;;5.64;62.23;99204.81;10391990;28;20321;-70
2023/12/09 13:15:35;;;;;;;2.67;2.50;;;;;;;5.72;62.31;99121.66;10391570;28;20335;-73
2023/12/09 13:20:46;;;;;;;3.17;2.57;;;;;;;5.78;61.87;99129.78;10395808;28;20293;-73
2023/12/09 13:25:55;;;;;;;3.23;2.30;;;;;;;5.98;61.52;99113.47;10391403;28;20232;-75
2023/12/09 13:31:03;;;;;;;4.23;2.40;;;;;;;6.35;61.94;99001.22;10379944;28;20237;-71
2023/12/09 13:36:12;;;;;;;2.70;2.50;;;;;;;6.56;60.10;99061.72;10384837;28;20303;-71
2023/12/09 13:41:22;;;;;;;6.17;2.57;;;;;;;6.12;62.23;99022.44;10386642;28;20254;-71
2023/12/09 13:46:30;;;;;;;5.20;2.80;;;;;;;5.80;62.07;99068.53;10395527;28;20267;-72
2023/12/09 13:51:39;;;;;;;5.13;2.47;;;;;;;6.12;62.20;99022.44;10391414;28;20232;-72
2023/12/09 13:56:46;;;;;;;3.20;2.90;;;;;;;5.79;63.54;98977.47;10387116;28;20240;-70
2023/12/09 14:02:01;;;;;;;3.23;2.50;;;;;;;4.98;64.24;99081.88;10395757;28;20239;-71
2023/12/09 14:07:16;;;;;;;2.63;2.27;;;;;;;5.13;63.63;99006.81;10427472;28;20242;-71
2023/12/09 14:12:25;;;;;;;2.33;2.23;;;;;;;5.19;63.87;98931.03;10442954;28;20269;-72
2023/12/09 14:17:33;;;;;;;2.17;2.07;;;;;;;3.81;65.76;99082.50;10432262;28;20226;-72
2023/12/09 14:22:43;;;;;;;2.80;2.60;;;;;;;5.03;65.45;98851.50;10429089;28;20232;-70
2023/12/09 14:27:52;;;;;;;3.30;2.37;;;;;;;4.47;66.46;98880.59;10421078;28;20264;-70
2023/12/09 14:33:06;;;;;;;2.97;2.67;;;;;;;4.24;65.97;98955.41;10442318;28;20482;-70
2023/12/09 14:38:15;;;;;;;7.80;2.73;;;;;;;4.38;65.29;98909.75;10429871;28;20227;-71
2023/12/09 14:43:23;;;;;;;2.57;2.37;;;;;;;3.90;66.52;98910.47;10439146;28;20246;-71
2023/12/09 14:48:31;;;;;;;3.10;2.90;;;;;;;4.54;65.92;98799.44;10435188;28;20733;-73
2023/12/09 14:53:40;;;;;;;2.10;2.00;;;;;;;3.37;68.49;98849.81;10405488;28;20650;-70
2023/12/09 14:58:48;;;;;;;2.50;2.30;;;;;;;3.34;69.00;98852.78;10434809;28;20239;-71
2023/12/09 15:04:03;;;;;;;2.70;2.50;;;;;;;3.56;69.13;98787.88;10414361;28;20244;-74
2023/12/09 15:09:19;;;;;;;3.87;2.40;;;;;;;4.45;67.39;98678.63;10396845;28;20255;-73
2023/12/09 15:14:27;;;;;;;4.23;2.90;;;;;;;3.40;69.34;98811.66;10388296;28;20235;-73
2023/12/09 15:19:36;;;;;;;3.60;3.30;;;;;;;4.00;68.74;98673.75;10392575;28;20777;-73
2023/12/09 15:24:46;;;;;;;4.40;3.07;;;;;;;4.58;66.75;98686.84;10387186;28;20275;-72
2023/12/09 15:29:56;;;;;;;3.60;3.30;;;;;;;3.75;67.95;98781.47;10374863;28;20629;-71
2023/12/09 15:35:05;;;;;;;4.83;4.10;;;;;;;5.25;65.25;98597.94;10378559;28;20332;-71
2023/12/09 15:40:15;;;;;;;3.50;3.20;;;;;;;4.55;66.29;98648.25;10396399;28;20320;-74
2023/12/09 15:45:24;;;;;;;4.80;2.90;;;;;;;4.72;66.26;98593.34;10389238;28;20310;-73
2023/12/09 15:50:31;;;;;;;3.30;3.10;;;;;;;4.41;66.88;98601.31;10401183;28;20316;-72
2023/12/09 15:55:39;;;;;;;2.60;2.40;;;;;;;4.00;67.20;98646.44;10396313;28;20324;-74
2023/12/09 16:00:48;;;;;;;3.30;2.70;;;;;;;4.49;65.96;98577.44;10401861;28;20281;-70
2023/12/09 16:06:09;;;;;;;3.03;2.73;;;;;;;3.79;66.91;98678.75;10425780;28;20235;-72
2023/12/09 16:11:18;;;;;;;2.77;2.60;;;;;;;3.94;66.96;98587.06;10435135;28;20323;-76
2023/12/09 16:16:26;;;;;;;2.90;2.70;;;;;;;4.71;65.54;98472.44;10439828;28;20236;-75
2023/12/09 16:21:34;;;;;;;5.77;4.70;;;;;;;5.19;63.72;98495.22;10439139;28;20232;-72
2023/12/09 16:26:43;;;;;;;2.83;2.63;;;;;;;4.33;66.74;98480.34;10450742;28;20273;-77
2023/12/09 16:31:51;;;;;;;2.37;2.27;;;;;;;4.28;66.19;98498.53;10441534;28;20323;-74
2023/12/09 16:37:06;;;;;;;2.50;2.30;;;;;;;4.09;66.43;98520.19;10424472;28;20225;-74
2023/12/09 16:42:15;;;;;;;2.37;2.20;;;;;;;3.90;66.97;98532.00;10442445;28;20520;-79
2023/12/09 16:47:33;;;;;;;3.23;2.60;;;;;;;5.03;65.26;98374.22;10437810;28;20707;-74
2023/12/09 16:52:42;;;;;;;2.90;2.70;;;;;;;4.94;66.18;98350.44;10443724;28;20236;-75
2023/12/09 16:57:50;;;;;;;3.07;2.40;;;;;;;4.39;67.20;98355.16;10435433;28;20240;-74
2023/12/09 17:03:04;;;;;;;2.70;2.40;;;;;;;5.00;65.89;98297.69;10428704;28;20241;-72
2023/12/09 17:08:19;;;;;;;2.90;2.70;;;;;;;5.40;65.17;98282.28;10427673;28;20312;-76
2023/12/09 17:13:34;;;;;;;2.53;2.33;;;;;;;3.93;67.47;98442.47;10434757;28;20248;-73
2023/12/09 17:18:48;;;;;;;2.80;2.60;;;;;;;3.95;67.69;98437.00;10437716;28;20232;-74
2023/12/09 17:23:57;;;;;;;2.47;2.27;;;;;;;4.14;67.23;98406.63;10419080;28;20290;-72
2023/12/09 17:29:05;;;;;;;2.37;2.23;;;;;;;5.39;65.44;98257.59;10435540;28;20289;-78
2023/12/09 17:34:13;;;;;;;2.87;2.63;;;;;;;5.52;64.94;98271.00;10432285;28;20229;-73
2023/12/09 17:39:21;;;;;;;2.80;2.60;;;;;;;5.16;64.53;98405.41;10434033;28;20712;-76
2023/12/09 17:44:29;;;;;;;2.47;2.37;;;;;;;4.74;66.60;98384.66;10436861;28;20240;-75
2023/12/09 17:49:37;;;;;;;2.57;2.37;;;;;;;4.73;68.23;98318.56;10435391;28;20238;-72
2023/12/09 17:54:45;;;;;;;2.73;2.30;;;;;;;4.36;69.91;98267.28;10428265;28;20262;-71
2023/12/09 17:59:54;;;;;;;2.60;2.40;;;;;;;5.08;67.84;98253.38;10416121;28;20224;-75
2023/12/09 18:05:08;;;;;;;2.63;2.43;;;;;;;4.27;70.00;98338.03;10429878;28;20247;-75
2023/12/09 18:10:17;;;;;;;2.83;2.70;;;;;;;4.02;71.57;98285.25;10439079;28;20240;-75
2023/12/09 18:15:28;;;;;;;3.03;2.73;;;;;;;4.77;69.27;98280.09;10431966;28;20238;-75
2023/12/09 18:20:37;;;;;;;2.77;2.57;;;;;;;4.97;68.77;98260.97;10434798;28;20661;-75
2023/12/09 18:25:45;;;;;;;2.50;2.30;;;;;;;4.44;70.85;98277.81;10433810;28;20244;-75
2023/12/09 18:30:54;;;;;;;2.83;2.63;;;;;;;4.77;70.10;98262.34;10432645;28;20629;-74
2023/12/09 18:36:03;;;;;;;3.10;2.90;;;;;;;4.50;71.04;98282.34;10432433;28;20322;-75
2023/12/09 18:41:12;;;;;;;3.10;2.90;;;;;;;4.96;70.52;98249.53;10438782;28;20228;-75
2023/12/09 18:46:20;;;;;;;2.83;2.33;;;;;;;4.83;70.72;98258.16;10432462;28;20381;-75
2023/12/09 18:51:28;;;;;;;2.93;2.73;;;;;;;4.15;72.10;98366.75;10437406;28;20253;-75
2023/12/09 18:56:36;;;;;;;2.57;2.37;;;;;;;5.23;70.66;98218.03;10431784;28;20248;-75
2023/12/09 19:01:45;;;;;;;2.40;2.30;;;;;;;4.31;72.74;98315.47;10422343;28;20595;-75
2023/12/09 19:07:12;;;;;;;2.90;2.70;;;;;;;5.20;70.86;98236.97;10433270;28;20713;-74
2023/12/09 19:12:21;;;;;;;2.97;2.73;;;;;;;4.68;72.04;98313.00;10439019;28;20223;-73
2023/12/09 19:17:31;;;;;;;3.23;3.03;;;;;;;4.54;72.67;98307.50;10426657;28;20267;-73
2023/12/09 19:22:39;;;;;;;3.07;2.83;;;;;;;5.44;69.81;98300.28;10437078;28;20680;-71
2023/12/09 19:27:49;;;;;;;3.10;2.80;;;;;;;5.17;72.18;98237.34;10448856;28;20241;-73
2023/12/09 19:32:59;;;;;;;4.17;3.60;;;;;;;5.15;70.81;98301.19;10442357;28;20567;-73
2023/12/09 19:38:08;;;;;;;3.30;3.00;;;;;;;5.01;71.11;98302.81;10423783;28;20230;-73
2023/12/09 19:43:16;;;;;;;6.07;3.33;;;;;;;5.88;69.47;98227.66;10443471;28;20231;-71
2023/12/09 19:48:24;;;;;;;3.20;2.90;;;;;;;5.42;71.02;98256.38;10440487;28;20325;-77
2023/12/09 19:53:32;;;;;;;3.50;3.20;;;;;;;5.56;70.13;98295.31;10439560;28;20429;-76
2023/12/09 19:58:40;;;;;;;3.63;3.23;;;;;;;5.51;69.72;98350.78;10441104;28;20255;-73
2023/12/09 20:03:55;;;;;;;2.40;2.17;;;;;;;3.84;74.18;98449.63;10430944;28;20240;-72
2023/12/09 20:09:12;;;;;;;3.70;3.40;;;;;;;5.48;71.15;98314.00;10400480;28;20235;-72
2023/12/09 20:14:23;;;;;;;3.13;2.90;;;;;;;5.82;68.84;98376.25;10399212;28;20234;-74
2023/12/09 20:19:32;;;;;;;4.80;2.93;;;;;;;6.65;67.65;98288.06;10400313;28;20270;-74
2023/12/09 20:24:41;;;;;;;3.80;2.73;;;;;;;6.12;69.35;98315.06;10390748;28;20650;-73
2023/12/09 20:29:54;;;;;;;2.90;2.70;;;;;;;6.10;68.64;98381.66;10380704;28;20239;-73
2023/12/09 20:35:03;;;;;;;3.53;3.23;;;;;;;6.64;68.83;98287.25;10392121;28;20220;-74
2023/12/09 20:40:19;;;;;;;3.23;2.93;;;;;;;6.10;69.77;98333.84;10391089;28;20239;-74
2023/12/09 20:45:27;;;;;;;3.03;2.83;;;;;;;6.30;68.31;98399.63;10394671;28;20716;-74
2023/12/09 20:50:35;;;;;;;3.43;3.03;;;;;;;6.94;66.52;98396.09;10395067;28;20297;-74
2023/12/09 20:55:44;;;;;;;3.20;2.93;;;;;;;6.91;67.37;98388.50;10397058;28;20317;-75
2023/12/09 21:00:52;;;;;;;3.30;3.07;;;;;;;6.13;68.81;98487.53;10391754;28;20240;-76
2023/12/09 21:06:13;;;;;;;2.80;2.33;;;;;;;6.52;67.52;98483.66;10424598;28;20246;-73
2023/12/09 21:11:22;;;;;;;2.87;2.67;;;;;;;6.27;67.81;98509.75;10436816;28;20371;-73
2023/12/09 21:16:40;;;;;;;2.90;2.70;;;;;;;6.60;68.00;98483.53;10433375;28;20619;-75
2023/12/09 21:21:48;;;;;;;2.87;2.60;;;;;;;6.86;68.46;98446.75;10439748;28;20251;-74
2023/12/09 21:26:56;;;;;;;2.60;2.50;;;;;;;5.64;69.74;98620.88;10439242;28;20239;-74
2023/12/09 21:32:04;;;;;;;3.47;3.27;;;;;;;6.50;68.50;98556.59;10438068;28;20330;-74
2023/12/09 21:37:12;;;;;;;3.00;2.80;;;;;;;7.28;65.88;98564.75;10434686;28;20318;-74
2023/12/09 21:42:20;;;;;;;3.00;2.80;;;;;;;7.52;65.79;98539.50;10440408;28;20473;-74
2023/12/09 21:47:30;;;;;;;3.40;3.00;;;;;;;7.09;66.60;98608.75;10434392;28;20246;-73
2023/12/09 21:52:38;;;;;;;3.10;2.90;;;;;;;7.80;64.84;98566.13;10434390;28;20250;-75
2023/12/09 21:57:46;;;;;;;3.10;2.90;;;;;;;6.95;65.95;98683.13;10430365;28;20244;-74
2023/12/09 22:02:54;;;;;;;3.27;2.77;;;;;;;7.78;64.92;98588.63;10439876;28;20231;-75
2023/12/09 22:08:10;;;;;;;10.83;2.93;;;;;;;7.16;65.75;98662.88;10430878;28;20240;-75
2023/12/09 22:13:19;;;;;;;6.43;3.40;;;;;;;7.57;63.92;98643.59;10419882;28;20653;-75
2023/12/09 22:18:27;;;;;;;10.10;3.30;;;;;;;7.35;63.62;98747.41;10424745;28;20272;-75
2023/12/09 22:23:35;;;;;;;6.93;3.00;;;;;;;8.52;61.92;98627.16;10438799;28;20710;-75
2023/12/09 22:28:45;;;;;;;7.80;3.40;;;;;;;8.01;62.03;98735.72;10429229;28;20266;-74
2023/12/09 22:33:53;;;;;;;14.83;4.17;;;;;;;7.57;63.18;98792.66;10439890;28;20240;-75
2023/12/09 22:39:03;;;;;;;8.63;3.13;;;;;;;7.68;63.33;98802.84;10436588;28;20224;-75
2023/12/09 22:44:11;;;;;;;8.50;3.53;;;;;;;7.90;62.52;98829.50;10429184;28;20240;-75
2023/12/09 22:49:19;;;;;;;4.40;2.63;;;;;;;8.29;62.27;98844.19;10435069;28;20315;-75
2023/12/09 22:54:27;;;;;;;11.00;3.73;;;;;;;7.95;62.50;98909.69;10431747;28;20754;-74
2023/12/09 22:59:35;;;;;;;11.90;3.73;;;;;;;8.31;62.19;98876.81;10434670;28;20281;-75
2023/12/09 23:04:50;;;;;;;10.70;3.43;;;;;;;9.67;58.96;98825.69;10429824;28;20326;-75
2023/12/09 23:10:04;;;;;;;5.87;3.40;;;;;;;7.02;64.86;98993.59;10434941;28;20224;-80
2023/12/09 23:15:13;;;;;;;10.97;3.97;;;;;;;7.18;63.49;98988.13;10427561;28;20329;-76
2023/12/09 23:20:28;;;;;;;11.17;4.97;;;;;;;7.41;62.47;98998.69;10433311;28;20243;-77
2023/12/09 23:25:37;;;;;;;15.07;4.37;;;;;;;7.54;61.93;98984.72;10430730;28;20330;-77
2023/12/09 23:30:45;;;;;;;13.37;4.87;;;;;;;7.53;62.17;98985.75;10436107;28;20240;-77
2023/12/09 23:35:53;;;;;;;16.53;4.63;;;;;;;7.36;62.61;99019.72;10429353;28;20685;-77
2023/12/09 23:41:01;;;;;;;20.73;5.30;;;;;;;7.93;61.93;98986.28;10435693;28;20637;-76
2023/12/09 23:46:14;;;;;;;13.10;4.57;;;;;;;7.61;62.11;99043.41;10423330;28;20267;-76
2023/12/09 23:51:22;;;;;;;20.63;4.43;;;;;;;7.26;63.19;99014.66;10431211;28;21021;-76
2023/12/09 23:56:30;;;;;;;13.50;5.17;;;;;;;7.82;61.06;99035.50;10434970;28;20325;-76
